sensor_id;sensor_type;location;lat;lon;timestamp;pressure;altitude;pressure_sealevel;temperature;humidity
79285;BME280;68734;50.452;11.636;2024-01-16T00:00:49;94304.97;;;-3.32;87.75
79285;BME280;68734;50.452;11.636;2024-01-16T00:03:15;94305.38;;;-3.35;88.11
79285;BME280;68734;50.452;11.636;2024-01-16T00:05:41;94308.63;;;-3.33;88.32
79285;BME280;68734;50.452;11.636;2024-01-16T00:08:06;94311.06;;;-3.32;88.31
79285;BME280;68734;50.452;11.636;2024-01-16T00:10:31;94311.88;;;-3.31;88.33
79285;BME280;68734;50.452;11.636;2024-01-16T00:12:59;94307.41;;;-3.31;88.41
79285;BME280;68734;50.452;11.636;2024-01-16T00:15:24;94318.38;;;-3.27;88.30
79285;BME280;68734;50.452;11.636;2024-01-16T00:17:50;94322.03;;;-3.28;88.35
79285;BME280;68734;50.452;11.636;2024-01-16T00:20:16;94328.53;;;-3.24;88.17
79285;BME280;68734;50.452;11.636;2024-01-16T00:22:42;94319.19;;;-3.27;88.17
79285;BME280;68734;50.452;11.636;2024-01-16T00:25:07;94326.50;;;-3.22;87.79
79285;BME280;68734;50.452;11.636;2024-01-16T00:27:33;94328.94;;;-3.21;87.91
79285;BME280;68734;50.452;11.636;2024-01-16T00:29:58;94327.50;;;-3.23;88.16
79285;BME280;68734;50.452;11.636;2024-01-16T00:32:24;94331.34;;;-3.19;88.33
79285;BME280;68734;50.452;11.636;2024-01-16T00:34:51;94330.97;;;-3.23;88.29
79285;BME280;68734;50.452;11.636;2024-01-16T00:37:19;94328.09;;;-3.21;88.26
79285;BME280;68734;50.452;11.636;2024-01-16T00:39:48;94322.44;;;-3.18;88.21
79285;BME280;68734;50.452;11.636;2024-01-16T00:42:13;94335.22;;;-3.15;87.76
79285;BME280;68734;50.452;11.636;2024-01-16T00:44:41;94338.28;;;-3.18;86.99
79285;BME280;68734;50.452;11.636;2024-01-16T00:47:06;94341.13;;;-3.19;86.77
79285;BME280;68734;50.452;11.636;2024-01-16T00:49:32;94348.03;;;-3.18;87.33
79285;BME280;68734;50.452;11.636;2024-01-16T00:51:57;94355.13;;;-3.19;87.24
79285;BME280;68734;50.452;11.636;2024-01-16T00:54:25;94354.31;;;-3.19;86.63
79285;BME280;68734;50.452;11.636;2024-01-16T00:56:51;94351.69;;;-3.19;86.74
79285;BME280;68734;50.452;11.636;2024-01-16T00:59:20;94355.72;;;-3.17;86.76
79285;BME280;68734;50.452;11.636;2024-01-16T01:01:46;94354.94;;;-3.17;86.63
79285;BME280;68734;50.452;11.636;2024-01-16T01:04:13;94360.63;;;-3.14;86.89
79285;BME280;68734;50.452;11.636;2024-01-16T01:06:44;94362.44;;;-3.08;86.81
79285;BME280;68734;50.452;11.636;2024-01-16T01:09:10;94360.19;;;-3.11;86.71
79285;BME280;68734;50.452;11.636;2024-01-16T01:11:39;94369.16;;;-3.12;86.83
79285;BME280;68734;50.452;11.636;2024-01-16T01:14:04;94367.94;;;-3.16;87.19
79285;BME280;68734;50.452;11.636;2024-01-16T01:16:32;94359.00;;;-3.22;87.66
79285;BME280;68734;50.452;11.636;2024-01-16T01:18:58;94379.50;;;-3.17;87.85
79285;BME280;68734;50.452;11.636;2024-01-16T01:21:24;94371.59;;;-3.17;87.80
79285;BME280;68734;50.452;11.636;2024-01-16T01:23:49;94367.13;;;-3.16;87.56
79285;BME280;68734;50.452;11.636;2024-01-16T01:26:14;94377.47;;;-3.15;87.56
79285;BME280;68734;50.452;11.636;2024-01-16T01:28:43;94380.53;;;-3.18;87.52
79285;BME280;68734;50.452;11.636;2024-01-16T01:31:12;94380.13;;;-3.15;87.32
79285;BME280;68734;50.452;11.636;2024-01-16T01:33:38;94385.00;;;-3.12;87.30
79285;BME280;68734;50.452;11.636;2024-01-16T01:36:04;94380.53;;;-3.11;87.52
79285;BME280;68734;50.452;11.636;2024-01-16T01:38:29;94388.25;;;-3.10;87.38
79285;BME280;68734;50.452;11.636;2024-01-16T01:40:57;94391.69;;;-3.09;87.25
79285;BME280;68734;50.452;11.636;2024-01-16T01:43:24;94391.91;;;-3.11;87.04
79285;BME280;68734;50.452;11.636;2024-01-16T01:46:14;94401.03;;;-3.07;87.26
79285;BME280;68734;50.452;11.636;2024-01-16T01:48:45;94388.66;;;-3.13;87.31
79285;BME280;68734;50.452;11.636;2024-01-16T01:51:13;94404.31;;;-3.05;87.18
79285;BME280;68734;50.452;11.636;2024-01-16T01:53:41;94403.06;;;-3.09;86.99
79285;BME280;68734;50.452;11.636;2024-01-16T01:56:10;94405.72;;;-3.09;87.12
79285;BME280;68734;50.452;11.636;2024-01-16T01:58:37;94409.38;;;-3.10;87.18
79285;BME280;68734;50.452;11.636;2024-01-16T02:01:08;94418.91;;;-3.09;87.01
79285;BME280;68734;50.452;11.636;2024-01-16T02:03:39;94418.31;;;-3.11;87.13
79285;BME280;68734;50.452;11.636;2024-01-16T02:06:06;94420.56;;;-3.08;86.90
79285;BME280;68734;50.452;11.636;2024-01-16T02:08:36;94431.53;;;-3.11;86.79
79285;BME280;68734;50.452;11.636;2024-01-16T02:11:02;94438.44;;;-3.10;87.16
79285;BME280;68734;50.452;11.636;2024-01-16T02:13:28;94436.81;;;-3.11;87.51
79285;BME280;68734;50.452;11.636;2024-01-16T02:15:56;94441.47;;;-3.13;87.30
79285;BME280;68734;50.452;11.636;2024-01-16T02:18:23;94445.16;;;-3.14;87.47
79285;BME280;68734;50.452;11.636;2024-01-16T02:20:49;94438.84;;;-3.13;87.59
79285;BME280;68734;50.452;11.636;2024-01-16T02:23:15;94449.41;;;-3.13;88.01
79285;BME280;68734;50.452;11.636;2024-01-16T02:25:44;94439.88;;;-3.14;88.44
79285;BME280;68734;50.452;11.636;2024-01-16T02:28:10;94458.97;;;-3.12;88.36
79285;BME280;68734;50.452;11.636;2024-01-16T02:30:37;94460.59;;;-3.04;87.42
79285;BME280;68734;50.452;11.636;2024-01-16T02:33:03;94445.75;;;-3.12;87.73
79285;BME280;68734;50.452;11.636;2024-01-16T02:35:28;94458.53;;;-3.09;88.31
79285;BME280;68734;50.452;11.636;2024-01-16T02:37:54;94458.78;;;-3.10;88.80
79285;BME280;68734;50.452;11.636;2024-01-16T02:40:19;94454.50;;;-3.11;88.39
79285;BME280;68734;50.452;11.636;2024-01-16T02:42:45;94455.28;;;-3.11;88.33
79285;BME280;68734;50.452;11.636;2024-01-16T02:45:11;94464.03;;;-3.17;88.48
79285;BME280;68734;50.452;11.636;2024-01-16T02:47:39;94469.31;;;-3.17;88.32
79285;BME280;68734;50.452;11.636;2024-01-16T02:50:05;94470.16;;;-3.16;88.31
79285;BME280;68734;50.452;11.636;2024-01-16T02:52:30;94459.78;;;-3.25;87.94
79285;BME280;68734;50.452;11.636;2024-01-16T02:54:56;94476.84;;;-3.14;88.13
79285;BME280;68734;50.452;11.636;2024-01-16T02:57:21;94473.19;;;-3.19;88.29
79285;BME280;68734;50.452;11.636;2024-01-16T02:59:46;94477.66;;;-3.13;88.39
79285;BME280;68734;50.452;11.636;2024-01-16T03:02:14;94477.66;;;-3.13;88.20
79285;BME280;68734;50.452;11.636;2024-01-16T03:04:42;94478.06;;;-3.16;87.98
79285;BME280;68734;50.452;11.636;2024-01-16T03:07:10;94494.72;;;-3.09;87.92
79285;BME280;68734;50.452;11.636;2024-01-16T03:09:35;94497.38;;;-3.09;87.73
79285;BME280;68734;50.452;11.636;2024-01-16T03:12:02;94494.72;;;-3.09;87.48
79285;BME280;68734;50.452;11.636;2024-01-16T03:14:27;94493.31;;;-3.12;87.92
79285;BME280;68734;50.452;11.636;2024-01-16T03:16:53;94490.06;;;-3.14;87.82
79285;BME280;68734;50.452;11.636;2024-01-16T03:19:18;94488.84;;;-3.18;87.82
79285;BME280;68734;50.452;11.636;2024-01-16T03:21:44;94490.25;;;-3.15;87.69
79285;BME280;68734;50.452;11.636;2024-01-16T03:24:09;94493.50;;;-3.20;88.05
79285;BME280;68734;50.452;11.636;2024-01-16T03:26:38;94499.59;;;-3.19;88.08
79285;BME280;68734;50.452;11.636;2024-01-16T03:29:06;94497.38;;;-3.23;88.04
79285;BME280;68734;50.452;11.636;2024-01-16T03:31:31;94502.44;;;-3.21;87.82
79285;BME280;68734;50.452;11.636;2024-01-16T03:33:56;94503.66;;;-3.17;87.81
79285;BME280;68734;50.452;11.636;2024-01-16T03:36:22;94491.47;;;-3.18;87.94
79285;BME280;68734;50.452;11.636;2024-01-16T03:38:48;94489.22;;;-3.21;87.42
79285;BME280;68734;50.452;11.636;2024-01-16T03:41:13;94493.50;;;-3.20;87.48
79285;BME280;68734;50.452;11.636;2024-01-16T03:43:40;94508.13;;;-3.24;87.60
79285;BME280;68734;50.452;11.636;2024-01-16T03:46:10;94509.34;;;-3.20;87.72
79285;BME280;68734;50.452;11.636;2024-01-16T03:48:38;94500.81;;;-3.22;89.33
79285;BME280;68734;50.452;11.636;2024-01-16T03:51:07;94502.44;;;-3.21;90.65
79285;BME280;68734;50.452;11.636;2024-01-16T03:53:34;94499.59;;;-3.26;91.48
79285;BME280;68734;50.452;11.636;2024-01-16T03:56:00;94497.75;;;-3.32;91.54
79285;BME280;68734;50.452;11.636;2024-01-16T03:58:25;94506.47;;;-3.38;91.61
79285;BME280;68734;50.452;11.636;2024-01-16T04:00:50;94498.31;;;-3.44;91.62
79285;BME280;68734;50.452;11.636;2024-01-16T04:03:18;94516.63;;;-3.35;91.12
79285;BME280;68734;50.452;11.636;2024-01-16T04:05:43;94509.31;;;-3.33;90.32
79285;BME280;68734;50.452;11.636;2024-01-16T04:08:11;94515.81;;;-3.29;89.96
79285;BME280;68734;50.452;11.636;2024-01-16T04:10:37;94517.22;;;-3.33;89.45
79285;BME280;68734;50.452;11.636;2024-01-16T04:13:05;94516.00;;;-3.37;89.57
79285;BME280;68734;50.452;11.636;2024-01-16T04:15:31;94520.50;;;-3.31;88.55
79285;BME280;68734;50.452;11.636;2024-01-16T04:17:56;94522.75;;;-3.28;88.60
79285;BME280;68734;50.452;11.636;2024-01-16T04:20:22;94529.84;;;-3.29;88.60
79285;BME280;68734;50.452;11.636;2024-01-16T04:22:50;94519.50;;;-3.30;88.38
79285;BME280;68734;50.452;11.636;2024-01-16T04:25:15;94514.22;;;-3.30;88.41
79285;BME280;68734;50.452;11.636;2024-01-16T04:27:41;94522.75;;;-3.28;88.69
79285;BME280;68734;50.452;11.636;2024-01-16T04:30:07;94517.84;;;-3.31;87.96
79285;BME280;68734;50.452;11.636;2024-01-16T04:32:33;94517.66;;;-3.36;88.37
79285;BME280;68734;50.452;11.636;2024-01-16T04:34:58;94535.34;;;-3.30;87.82
79285;BME280;68734;50.452;11.636;2024-01-16T04:37:24;94524.34;;;-3.34;87.50
79285;BME280;68734;50.452;11.636;2024-01-16T04:39:49;94523.94;;;-3.37;87.63
79285;BME280;68734;50.452;11.636;2024-01-16T04:42:15;94526.38;;;-3.43;88.34
79285;BME280;68734;50.452;11.636;2024-01-16T04:44:43;94538.53;;;-3.42;88.19
79285;BME280;68734;50.452;11.636;2024-01-16T04:47:11;94538.53;;;-3.42;88.76
79285;BME280;68734;50.452;11.636;2024-01-16T04:49:37;94535.69;;;-3.47;88.59
79285;BME280;68734;50.452;11.636;2024-01-16T04:52:02;94540.75;;;-3.52;88.95
79285;BME280;68734;50.452;11.636;2024-01-16T04:54:28;94549.03;;;-3.55;88.89
79285;BME280;68734;50.452;11.636;2024-01-16T04:56:54;94548.66;;;-3.52;88.15
79285;BME280;68734;50.452;11.636;2024-01-16T04:59:19;94552.31;;;-3.53;88.55
79285;BME280;68734;50.452;11.636;2024-01-16T05:01:45;94544.59;;;-3.54;88.79
79285;BME280;68734;50.452;11.636;2024-01-16T05:04:13;94551.53;;;-3.47;88.46
79285;BME280;68734;50.452;11.636;2024-01-16T05:06:41;94551.53;;;-3.47;88.33
79285;BME280;68734;50.452;11.636;2024-01-16T05:09:06;94554.75;;;-3.51;88.69
79285;BME280;68734;50.452;11.636;2024-01-16T05:11:31;94556.59;;;-3.45;88.37
79285;BME280;68734;50.452;11.636;2024-01-16T05:13:57;94553.34;;;-3.47;89.62
79285;BME280;68734;50.452;11.636;2024-01-16T05:16:27;94554.81;;;-3.45;89.36
79285;BME280;68734;50.452;11.636;2024-01-16T05:18:53;94551.94;;;-3.43;88.97
79285;BME280;68734;50.452;11.636;2024-01-16T05:21:19;94550.75;;;-3.41;90.04
79285;BME280;68734;50.452;11.636;2024-01-16T05:23:45;94551.56;;;-3.40;90.11
79285;BME280;68734;50.452;11.636;2024-01-16T05:26:13;94541.81;;;-3.39;90.52
79285;BME280;68734;50.452;11.636;2024-01-16T05:28:39;94549.53;;;-3.38;90.90
79285;BME280;68734;50.452;11.636;2024-01-16T05:31:07;94542.22;;;-3.43;90.96
79285;BME280;68734;50.452;11.636;2024-01-16T05:33:33;94552.16;;;-3.38;90.83
79285;BME280;68734;50.452;11.636;2024-01-16T05:36:00;94545.84;;;-3.37;90.88
79285;BME280;68734;50.452;11.636;2024-01-16T05:38:27;94547.50;;;-3.36;91.32
79285;BME280;68734;50.452;11.636;2024-01-16T05:40:52;94543.44;;;-3.38;90.27
79285;BME280;68734;50.452;11.636;2024-01-16T05:43:18;94538.97;;;-3.45;89.75
79285;BME280;68734;50.452;11.636;2024-01-16T05:45:46;94540.56;;;-3.44;90.07
79285;BME280;68734;50.452;11.636;2024-01-16T05:48:11;94551.94;;;-3.43;90.17
79285;BME280;68734;50.452;11.636;2024-01-16T05:50:37;94555.41;;;-3.43;89.03
79285;BME280;68734;50.452;11.636;2024-01-16T05:53:03;94554.56;;;-3.50;89.54
79285;BME280;68734;50.452;11.636;2024-01-16T05:55:31;94570.16;;;-3.55;89.25
79285;BME280;68734;50.452;11.636;2024-01-16T05:57:58;94567.31;;;-3.60;88.97
79285;BME280;68734;50.452;11.636;2024-01-16T06:00:24;94571.38;;;-3.64;87.84
79285;BME280;68734;50.452;11.636;2024-01-16T06:02:50;94574.19;;;-3.72;87.71
79285;BME280;68734;50.452;11.636;2024-01-16T06:05:16;94570.31;;;-3.76;88.52
79285;BME280;68734;50.452;11.636;2024-01-16T06:07:41;94569.22;;;-3.89;88.32
79285;BME280;68734;50.452;11.636;2024-01-16T06:10:07;94563.88;;;-4.02;88.98
79285;BME280;68734;50.452;11.636;2024-01-16T06:12:33;94565.41;;;-4.14;89.51
79285;BME280;68734;50.452;11.636;2024-01-16T06:14:59;94550.28;;;-4.34;89.76
79285;BME280;68734;50.452;11.636;2024-01-16T06:17:24;94565.22;;;-4.41;89.88
79285;BME280;68734;50.452;11.636;2024-01-16T06:19:50;94566.00;;;-4.47;90.22
79285;BME280;68734;50.452;11.636;2024-01-16T06:22:15;94556.22;;;-4.53;90.29
79285;BME280;68734;50.452;11.636;2024-01-16T06:24:41;94554.53;;;-4.61;90.35
79285;BME280;68734;50.452;11.636;2024-01-16T06:27:06;94560.56;;;-4.67;90.52
79285;BME280;68734;50.452;11.636;2024-01-16T06:29:32;94569.06;;;-4.72;90.66
79285;BME280;68734;50.452;11.636;2024-01-16T06:31:58;94570.84;;;-4.79;90.91
79285;BME280;68734;50.452;11.636;2024-01-16T06:34:23;94574.81;;;-4.83;91.18
79285;BME280;68734;50.452;11.636;2024-01-16T06:36:49;94587.00;;;-4.82;91.64
79285;BME280;68734;50.452;11.636;2024-01-16T06:39:14;94574.19;;;-4.85;91.70
79285;BME280;68734;50.452;11.636;2024-01-16T06:41:41;94587.91;;;-4.75;91.77
79285;BME280;68734;50.452;11.636;2024-01-16T06:44:06;94586.25;;;-4.76;91.86
79285;BME280;68734;50.452;11.636;2024-01-16T06:46:32;94576.09;;;-4.79;91.82
79285;BME280;68734;50.452;11.636;2024-01-16T06:48:57;94579.47;;;-4.85;92.01
79285;BME280;68734;50.452;11.636;2024-01-16T06:51:23;94580.09;;;-4.83;92.16
79285;BME280;68734;50.452;11.636;2024-01-16T06:53:48;94578.22;;;-4.89;92.21
79285;BME280;68734;50.452;11.636;2024-01-16T06:56:13;94575.97;;;-4.92;92.37
79285;BME280;68734;50.452;11.636;2024-01-16T06:58:39;94576.34;;;-4.95;92.17
79285;BME280;68734;50.452;11.636;2024-01-16T07:01:04;94586.75;;;-4.87;92.31
79285;BME280;68734;50.452;11.636;2024-01-16T07:03:34;94592.41;;;-4.90;92.28
79285;BME280;68734;50.452;11.636;2024-01-16T07:05:59;94594.84;;;-4.89;92.38
79285;BME280;68734;50.452;11.636;2024-01-16T07:08:27;94599.69;;;-4.92;92.47
79285;BME280;68734;50.452;11.636;2024-01-16T07:10:54;94607.81;;;-4.87;92.39
79285;BME280;68734;50.452;11.636;2024-01-16T07:13:21;94605.00;;;-4.86;92.36
79285;BME280;68734;50.452;11.636;2024-01-16T07:15:47;94611.97;;;-4.78;92.27
79285;BME280;68734;50.452;11.636;2024-01-16T07:18:13;94614.53;;;-4.63;91.88
79285;BME280;68734;50.452;11.636;2024-01-16T07:20:39;94619.47;;;-4.53;91.66
79285;BME280;68734;50.452;11.636;2024-01-16T07:23:04;94623.22;;;-4.41;90.92
79285;BME280;68734;50.452;11.636;2024-01-16T07:25:30;94632.00;;;-4.34;90.86
79285;BME280;68734;50.452;11.636;2024-01-16T07:27:56;94635.94;;;-4.23;90.41
79285;BME280;68734;50.452;11.636;2024-01-16T07:30:24;94641.91;;;-4.14;90.20
79285;BME280;68734;50.452;11.636;2024-01-16T07:32:49;94638.88;;;-4.11;89.74
79285;BME280;68734;50.452;11.636;2024-01-16T07:35:16;94642.19;;;-4.03;89.41
79285;BME280;68734;50.452;11.636;2024-01-16T07:37:41;94643.84;;;-3.95;89.03
79285;BME280;68734;50.452;11.636;2024-01-16T07:40:08;94634.56;;;-3.91;88.90
79285;BME280;68734;50.452;11.636;2024-01-16T07:42:35;94645.97;;;-3.84;88.90
79285;BME280;68734;50.452;11.636;2024-01-16T07:45:04;94655.72;;;-3.84;88.91
79285;BME280;68734;50.452;11.636;2024-01-16T07:47:31;94645.97;;;-3.84;88.85
79285;BME280;68734;50.452;11.636;2024-01-16T07:49:58;94657.75;;;-3.79;88.99
79285;BME280;68734;50.452;11.636;2024-01-16T07:52:23;94648.44;;;-3.75;88.71
79285;BME280;68734;50.452;11.636;2024-01-16T07:54:51;94654.97;;;-3.71;88.73
79285;BME280;68734;50.452;11.636;2024-01-16T07:57:17;94654.59;;;-3.68;88.51
79285;BME280;68734;50.452;11.636;2024-01-16T07:59:42;94657.06;;;-3.60;88.17
79285;BME280;68734;50.452;11.636;2024-01-16T08:02:08;94655.06;;;-3.58;87.95
79285;BME280;68734;50.452;11.636;2024-01-16T08:04:34;94662.34;;;-3.60;87.72
79285;BME280;68734;50.452;11.636;2024-01-16T08:07:00;94660.75;;;-3.54;87.60
79285;BME280;68734;50.452;11.636;2024-01-16T08:09:25;94656.91;;;-3.52;87.74
79285;BME280;68734;50.452;11.636;2024-01-16T08:11:54;94658.31;;;-3.56;87.18
79285;BME280;68734;50.452;11.636;2024-01-16T08:14:25;94657.91;;;-3.53;87.02
79285;BME280;68734;50.452;11.636;2024-01-16T08:16:50;94667.13;;;-3.42;87.05
79285;BME280;68734;50.452;11.636;2024-01-16T08:19:16;94666.31;;;-3.43;86.97
79285;BME280;68734;50.452;11.636;2024-01-16T08:21:41;94666.31;;;-3.43;86.88
79285;BME280;68734;50.452;11.636;2024-01-16T08:24:07;94667.31;;;-3.44;86.86
79285;BME280;68734;50.452;11.636;2024-01-16T08:26:33;94667.75;;;-3.33;86.61
79285;BME280;68734;50.452;11.636;2024-01-16T08:28:58;94667.22;;;-3.22;86.10
79285;BME280;68734;50.452;11.636;2024-01-16T08:31:24;94672.72;;;-3.17;85.95
79285;BME280;68734;50.452;11.636;2024-01-16T08:33:49;94673.53;;;-3.16;85.78
79285;BME280;68734;50.452;11.636;2024-01-16T08:36:15;94671.09;;;-3.11;85.64
79285;BME280;68734;50.452;11.636;2024-01-16T08:38:40;94682.72;;;-3.06;85.88
79285;BME280;68734;50.452;11.636;2024-01-16T08:41:06;94675.59;;;-3.05;85.43
79285;BME280;68734;50.452;11.636;2024-01-16T08:43:35;94680.50;;;-3.02;84.99
79285;BME280;68734;50.452;11.636;2024-01-16T08:46:00;94685.19;;;-2.91;85.49
79285;BME280;68734;50.452;11.636;2024-01-16T08:48:26;94686.03;;;-2.90;84.85
79285;BME280;68734;50.452;11.636;2024-01-16T08:50:52;94692.97;;;-2.83;84.76
79285;BME280;68734;50.452;11.636;2024-01-16T08:53:19;94677.69;;;-2.87;84.28
79285;BME280;68734;50.452;11.636;2024-01-16T08:55:45;94697.25;;;-2.75;84.41
79285;BME280;68734;50.452;11.636;2024-01-16T08:58:10;94691.97;;;-2.75;83.65
79285;BME280;68734;50.452;11.636;2024-01-16T09:00:36;94689.13;;;-2.80;83.47
79285;BME280;68734;50.452;11.636;2024-01-16T09:03:03;94686.66;;;-2.82;83.68
79285;BME280;68734;50.452;11.636;2024-01-16T09:05:29;94683.03;;;-2.74;83.74
79285;BME280;68734;50.452;11.636;2024-01-16T09:07:54;94701.34;;;-2.72;83.75
79285;BME280;68734;50.452;11.636;2024-01-16T09:10:19;94692.56;;;-2.73;84.04
79285;BME280;68734;50.452;11.636;2024-01-16T09:12:45;94708.25;;;-2.78;84.67
79285;BME280;68734;50.452;11.636;2024-01-16T09:15:10;94701.31;;;-2.79;85.21
79285;BME280;68734;50.452;11.636;2024-01-16T09:17:36;94689.31;;;-2.75;85.69
79285;BME280;68734;50.452;11.636;2024-01-16T09:20:01;94699.94;;;-2.62;85.24
79285;BME280;68734;50.452;11.636;2024-01-16T09:22:28;94686.53;;;-2.53;84.20
79285;BME280;68734;50.452;11.636;2024-01-16T09:24:54;94686.56;;;-2.40;83.75
79285;BME280;68734;50.452;11.636;2024-01-16T09:27:19;94692.47;;;-2.25;83.38
79285;BME280;68734;50.452;11.636;2024-01-16T09:29:45;94680.66;;;-2.29;82.48
79285;BME280;68734;50.452;11.636;2024-01-16T09:32:10;94685.97;;;-2.22;82.27
79285;BME280;68734;50.452;11.636;2024-01-16T09:34:35;94687.63;;;-2.14;82.18
79285;BME280;68734;50.452;11.636;2024-01-16T09:37:01;94695.94;;;-2.17;81.76
79285;BME280;68734;50.452;11.636;2024-01-16T09:39:28;94696.19;;;-2.12;81.34
79285;BME280;68734;50.452;11.636;2024-01-16T09:41:59;94699.00;;;-2.07;81.30
79285;BME280;68734;50.452;11.636;2024-01-16T09:44:27;94707.16;;;-2.02;80.58
79285;BME280;68734;50.452;11.636;2024-01-16T09:46:55;94705.31;;;-1.95;80.46
79285;BME280;68734;50.452;11.636;2024-01-16T09:49:23;94711.25;;;-1.86;80.48
79285;BME280;68734;50.452;11.636;2024-01-16T09:51:49;94698.22;;;-1.88;79.98
79285;BME280;68734;50.452;11.636;2024-01-16T09:54:14;94705.94;;;-1.79;79.96
79285;BME280;68734;50.452;11.636;2024-01-16T09:56:44;94692.91;;;-1.74;79.74
79285;BME280;68734;50.452;11.636;2024-01-16T09:59:15;94696.16;;;-1.79;79.95
79285;BME280;68734;50.452;11.636;2024-01-16T10:01:42;94695.75;;;-1.76;79.58
79285;BME280;68734;50.452;11.636;2024-01-16T10:04:08;94696.16;;;-1.86;79.32
79285;BME280;68734;50.452;11.636;2024-01-16T10:06:34;94698.00;;;-1.93;79.25
79285;BME280;68734;50.452;11.636;2024-01-16T10:09:02;94692.91;;;-1.88;79.25
79285;BME280;68734;50.452;11.636;2024-01-16T10:11:28;94698.22;;;-1.88;79.17
79285;BME280;68734;50.452;11.636;2024-01-16T10:13:55;94688.84;;;-1.84;79.46
79285;BME280;68734;50.452;11.636;2024-01-16T10:16:21;94695.34;;;-1.79;79.44
79285;BME280;68734;50.452;11.636;2024-01-16T10:18:47;94695.97;;;-1.77;79.47
79285;BME280;68734;50.452;11.636;2024-01-16T10:21:20;94692.09;;;-1.75;79.50
79285;BME280;68734;50.452;11.636;2024-01-16T10:23:47;94696.97;;;-1.65;79.33
79285;BME280;68734;50.452;11.636;2024-01-16T10:26:12;94689.44;;;-1.62;78.69
79285;BME280;68734;50.452;11.636;2024-01-16T10:28:41;94682.28;;;-1.61;77.70
79285;BME280;68734;50.452;11.636;2024-01-16T10:31:11;94687.59;;;-1.61;77.56
79285;BME280;68734;50.452;11.636;2024-01-16T10:33:38;94691.88;;;-1.60;77.00
79285;BME280;68734;50.452;11.636;2024-01-16T10:36:14;94702.47;;;-1.60;77.63
79285;BME280;68734;50.452;11.636;2024-01-16T10:38:45;94695.34;;;-1.66;77.12
79285;BME280;68734;50.452;11.636;2024-01-16T10:41:14;94686.38;;;-1.65;77.33
79285;BME280;68734;50.452;11.636;2024-01-16T10:43:43;94693.69;;;-1.61;77.55
79285;BME280;68734;50.452;11.636;2024-01-16T10:46:16;94688.41;;;-1.54;76.44
79285;BME280;68734;50.452;11.636;2024-01-16T10:48:43;94690.22;;;-1.48;76.15
79285;BME280;68734;50.452;11.636;2024-01-16T10:51:15;94679.41;;;-1.39;76.74
79285;BME280;68734;50.452;11.636;2024-01-16T10:53:45;94679.59;;;-1.34;77.27
79285;BME280;68734;50.452;11.636;2024-01-16T10:56:13;94685.72;;;-1.41;76.48
79285;BME280;68734;50.452;11.636;2024-01-16T10:58:43;94684.69;;;-1.39;77.08
79285;BME280;68734;50.452;11.636;2024-01-16T11:01:13;94691.78;;;-1.27;76.45
79285;BME280;68734;50.452;11.636;2024-01-16T11:03:50;94698.91;;;-1.21;75.52
79285;BME280;68734;50.452;11.636;2024-01-16T11:06:17;94696.25;;;-1.21;75.75
79285;BME280;68734;50.452;11.636;2024-01-16T11:08:46;94708.91;;;-1.16;76.42
79285;BME280;68734;50.452;11.636;2024-01-16T11:11:12;94704.63;;;-1.17;75.73
79285;BME280;68734;50.452;11.636;2024-01-16T11:13:38;94698.47;;;-1.11;75.47
79285;BME280;68734;50.452;11.636;2024-01-16T11:16:05;94706.19;;;-1.03;75.54
79285;BME280;68734;50.452;11.636;2024-01-16T11:18:33;94710.28;;;-1.00;76.29
79285;BME280;68734;50.452;11.636;2024-01-16T11:21:10;94710.72;;;-1.10;76.89
79285;BME280;68734;50.452;11.636;2024-01-16T11:23:36;94707.47;;;-1.12;76.65
79285;BME280;68734;50.452;11.636;2024-01-16T11:26:28;94708.31;;;-1.18;76.82
79285;BME280;68734;50.452;11.636;2024-01-16T11:28:55;94689.56;;;-1.36;76.88
79285;BME280;68734;50.452;11.636;2024-01-16T11:31:31;94699.78;;;-1.47;77.33
79285;BME280;68734;50.452;11.636;2024-01-16T11:33:58;94708.75;;;-1.48;78.16
79285;BME280;68734;50.452;11.636;2024-01-16T11:39:17;94707.97;;;-1.48;78.75
79285;BME280;68734;50.452;11.636;2024-01-16T11:42:00;94711.19;;;-1.53;78.67
79285;BME280;68734;50.452;11.636;2024-01-16T11:44:46;94711.81;;;-1.51;79.07
79285;BME280;68734;50.452;11.636;2024-01-16T11:47:19;94713.06;;;-1.60;78.87
79285;BME280;68734;50.452;11.636;2024-01-16T11:49:46;94713.66;;;-1.58;79.45
79285;BME280;68734;50.452;11.636;2024-01-16T11:52:12;94709.81;;;-1.62;78.89
79285;BME280;68734;50.452;11.636;2024-01-16T11:54:39;94712.25;;;-1.67;79.06
79285;BME280;68734;50.452;11.636;2024-01-16T12:03:07;94701.84;;;-1.69;78.82
79285;BME280;68734;50.452;11.636;2024-01-16T12:05:31;94699.84;;;-1.80;78.88
79285;BME280;68734;50.452;11.636;2024-01-16T12:07:57;94686.81;;;-1.82;79.01
79285;BME280;68734;50.452;11.636;2024-01-16T12:10:24;94678.25;;;-1.97;79.17
79285;BME280;68734;50.452;11.636;2024-01-16T12:12:51;94670.91;;;-2.02;79.59
79285;BME280;68734;50.452;11.636;2024-01-16T12:15:17;94672.16;;;-2.04;80.09
79285;BME280;68734;50.452;11.636;2024-01-16T12:17:55;94672.94;;;-1.97;79.93
79285;BME280;68734;50.452;11.636;2024-01-16T12:20:22;94665.81;;;-2.03;79.81
79285;BME280;68734;50.452;11.636;2024-01-16T12:23:02;94667.66;;;-1.97;80.10
79285;BME280;68734;50.452;11.636;2024-01-16T12:25:30;94666.84;;;-1.97;79.99
79285;BME280;68734;50.452;11.636;2024-01-16T12:27:56;94663.97;;;-1.83;78.57
79285;BME280;68734;50.452;11.636;2024-01-16T12:30:36;94665.63;;;-1.82;78.97
79285;BME280;68734;50.452;11.636;2024-01-16T12:33:09;94658.28;;;-1.66;78.36
79285;BME280;68734;50.452;11.636;2024-01-16T12:35:41;94658.25;;;-1.59;78.20
79285;BME280;68734;50.452;11.636;2024-01-16T12:38:09;94658.84;;;-1.51;77.94
79285;BME280;68734;50.452;11.636;2024-01-16T12:40:49;94637.66;;;-1.51;77.56
79285;BME280;68734;50.452;11.636;2024-01-16T12:43:17;94641.75;;;-1.48;77.82
79285;BME280;68734;50.452;11.636;2024-01-16T12:45:44;94641.13;;;-1.57;77.99
79285;BME280;68734;50.452;11.636;2024-01-16T12:48:10;94647.25;;;-1.63;77.67
79285;BME280;68734;50.452;11.636;2024-01-16T12:50:35;94647.09;;;-1.82;78.57
79285;BME280;68734;50.452;11.636;2024-01-16T12:55:28;94653.81;;;-1.99;79.08
79285;BME280;68734;50.452;11.636;2024-01-16T12:58:16;94651.78;;;-2.04;79.75
79285;BME280;68734;50.452;11.636;2024-01-16T13:00:43;94647.31;;;-2.10;79.73